Time;durP1;ratioP1;P1;durP2;ratioP2;P2;SDS_P1;SDS_P2;PMS_P1;PMS_P2;Temp;Humidity;BMP_temperature;BMP_pressure;BME280_temperature;BME280_humidity;BME280_pressure;Samples;Min_cycle;Max_cycle;Signal;HPM_P1;HPM_P2
2023/07/15 00:01:05;;;;;;;;;;;24.30;89.10;;;;;;5115394;28;19985;-63
2023/07/15 00:03:31;;;;;;;;;;;24.30;89.40;;;;;;5115212;28;20007;-65
2023/07/15 00:05:57;;;;;;;;;;;24.20;89.40;;;;;;5096981;28;19988;-63
2023/07/15 00:08:22;;;;;;;;;;;24.20;89.80;;;;;;5115389;28;20016;-64
2023/07/15 00:10:48;;;;;;;;;;;24.20;90.00;;;;;;5114998;28;20052;-63
2023/07/15 00:13:15;;;;;;;;;;;24.20;90.20;;;;;;5114995;28;20000;-64
2023/07/15 00:15:41;;;;;;;;;;;24.20;90.30;;;;;;5115002;28;20039;-64
2023/07/15 00:18:09;;;;;;;;;;;24.10;90.50;;;;;;5115067;28;20075;-62
2023/07/15 00:20:35;;;;;;;;;;;24.10;90.50;;;;;;5114973;28;19985;-64
2023/07/15 00:23:01;;;;;;;;;;;24.10;90.70;;;;;;5114893;28;19991;-64
2023/07/15 00:25:26;;;;;;;;;;;24.10;90.70;;;;;;5114664;28;20038;-63
2023/07/15 00:27:52;;;;;;;;;;;24.10;90.90;;;;;;5114575;28;20019;-63
2023/07/15 00:30:19;;;;;;;;;;;24.00;91.00;;;;;;5114810;28;20018;-65
2023/07/15 00:32:46;;;;;;;;;;;23.90;91.30;;;;;;5114731;28;20446;-64
2023/07/15 00:35:19;;;;;;;;;;;23.90;91.50;;;;;;5114665;28;20401;-64
2023/07/15 00:37:45;;;;;;;;;;;23.80;91.80;;;;;;5114945;28;19996;-65
2023/07/15 00:40:11;;;;;;;;;;;23.80;91.70;;;;;;5114421;28;20374;-63
2023/07/15 00:43:00;;;;;;;;;;;23.80;91.70;;;;;;5114846;28;19989;-63
2023/07/15 00:45:25;;;;;;;;;;;23.80;91.80;;;;;;5067125;28;20000;-63
2023/07/15 00:47:58;;;;;;;;;;;23.80;91.70;;;;;;5114066;28;20028;-64
2023/07/15 00:50:23;;;;;;;;;;;23.80;92.00;;;;;;5114586;28;20034;-64
2023/07/15 00:52:49;;;;;;;;;;;23.80;92.00;;;;;;5114380;28;20400;-63
2023/07/15 00:55:14;;;;;;;;;;;23.80;91.60;;;;;;5114168;28;19985;-64
2023/07/15 00:57:40;;;;;;;;;;;23.70;92.20;;;;;;5114380;28;20000;-63
2023/07/15 01:00:09;;;;;;;;;;;23.70;91.80;;;;;;5114310;28;19988;-63
2023/07/15 01:02:35;;;;;;;;;;;23.70;92.00;;;;;;5114234;28;20350;-62
2023/07/15 01:05:01;;;;;;;;;;;23.70;92.10;;;;;;5114367;28;19985;-63
2023/07/15 01:07:26;;;;;;;;;;;23.70;92.30;;;;;;5114228;28;20100;-64
2023/07/15 01:09:52;;;;;;;;;;;23.70;92.50;;;;;;5113860;28;20080;-63
2023/07/15 01:12:18;;;;;;;;;;;23.70;92.60;;;;;;5114195;28;19989;-64
2023/07/15 01:14:44;;;;;;;;;;;23.70;92.70;;;;;;5114057;28;20035;-63
2023/07/15 01:17:09;;;;;;;;;;;23.60;93.00;;;;;;5114063;28;19985;-64
2023/07/15 01:19:35;;;;;;;;;;;23.40;93.40;;;;;;5114133;28;20461;-64
2023/07/15 01:22:01;;;;;;;;;;;23.40;93.40;;;;;;5114280;28;20367;-63
2023/07/15 01:24:27;;;;;;;;;;;23.40;93.60;;;;;;5113791;28;19989;-64
2023/07/15 01:27:01;;;;;;;;;;;23.40;93.70;;;;;;5114015;28;19985;-62
2023/07/15 01:29:27;;;;;;;;;;;23.40;94.20;;;;;;5114091;28;20364;-64
2023/07/15 01:31:53;;;;;;;;;;;23.40;93.80;;;;;;5113988;28;20072;-63
2023/07/15 01:34:19;;;;;;;;;;;23.30;93.70;;;;;;5113876;28;20087;-63
2023/07/15 01:36:45;;;;;;;;;;;23.40;93.60;;;;;;5114866;28;19991;-64
2023/07/15 01:39:11;;;;;;;;;;;23.40;93.00;;;;;;5118107;28;20050;-65
2023/07/15 01:41:36;;;;;;;;;;;23.50;93.00;;;;;;5118021;28;19985;-64
2023/07/15 01:44:04;;;;;;;;;;;23.40;93.20;;;;;;5118110;28;19985;-65
2023/07/15 01:46:30;;;;;;;;;;;23.40;93.40;;;;;;5117977;28;19994;-64
2023/07/15 01:48:59;;;;;;;;;;;23.40;93.50;;;;;;5117642;28;20020;-62
2023/07/15 01:51:25;;;;;;;;;;;23.40;93.60;;;;;;5118140;28;19989;-63
2023/07/15 01:53:50;;;;;;;;;;;23.30;94.00;;;;;;5117700;28;19984;-64
2023/07/15 01:56:18;;;;;;;;;;;23.40;93.90;;;;;;5117721;28;19992;-65
2023/07/15 01:58:44;;;;;;;;;;;23.30;93.90;;;;;;5117635;28;20362;-64
2023/07/15 02:01:10;;;;;;;;;;;23.40;93.90;;;;;;5117775;28;19984;-64
2023/07/15 02:03:35;;;;;;;;;;;23.30;93.90;;;;;;5117842;28;20331;-63
2023/07/15 02:06:01;;;;;;;;;;;23.30;94.10;;;;;;5117747;28;20049;-65
2023/07/15 02:08:26;;;;;;;;;;;23.20;94.30;;;;;;5117497;28;20063;-63
2023/07/15 02:10:52;;;;;;;;;;;23.20;94.50;;;;;;5117709;28;20435;-65
2023/07/15 02:13:17;;;;;;;;;;;23.20;94.50;;;;;;5117719;28;20418;-62
2023/07/15 02:15:43;;;;;;;;;;;23.20;94.50;;;;;;5117464;28;20067;-65
2023/07/15 02:18:09;;;;;;;;;;;23.20;94.70;;;;;;5117342;28;19984;-63
2023/07/15 02:20:34;;;;;;;;;;;23.10;94.80;;;;;;5117900;28;19989;-64
2023/07/15 02:23:00;;;;;;;;;;;23.10;95.00;;;;;;5117167;28;19985;-64
2023/07/15 02:25:26;;;;;;;;;;;23.10;95.10;;;;;;5117354;28;19985;-63
2023/07/15 02:27:51;;;;;;;;;;;23.10;95.00;;;;;;5116909;28;20382;-64
2023/07/15 02:30:19;;;;;;;;;;;23.00;94.80;;;;;;5117164;28;20087;-63
2023/07/15 02:32:45;;;;;;;;;;;23.00;94.40;;;;;;5117050;28;19989;-62
2023/07/15 02:35:12;;;;;;;;;;;23.00;94.20;;;;;;5116965;28;19985;-62
2023/07/15 02:37:38;;;;;;;;;;;23.10;94.30;;;;;;5116881;28;20439;-63
2023/07/15 02:40:04;;;;;;;;;;;23.00;94.30;;;;;;5116971;28;19985;-65
2023/07/15 02:42:33;;;;;;;;;;;23.00;94.30;;;;;;5116799;28;20040;-62
2023/07/15 02:45:03;;;;;;;;;;;23.00;94.40;;;;;;5116952;28;19985;-64
2023/07/15 02:47:29;;;;;;;;;;;23.00;94.40;;;;;;5116413;28;20389;-63
2023/07/15 02:49:56;;;;;;;;;;;23.00;94.50;;;;;;5115827;28;19989;-63
2023/07/15 02:52:23;;;;;;;;;;;23.00;94.30;;;;;;5116587;28;19985;-65
2023/07/15 02:54:49;;;;;;;;;;;23.00;94.60;;;;;;5116751;28;20010;-63
2023/07/15 02:57:14;;;;;;;;;;;22.90;94.70;;;;;;5116483;28;20005;-63
2023/07/15 02:59:40;;;;;;;;;;;22.90;94.90;;;;;;5116536;28;20504;-64
2023/07/15 03:02:05;;;;;;;;;;;22.90;94.80;;;;;;5116484;28;20468;-63
2023/07/15 03:04:31;;;;;;;;;;;22.90;94.90;;;;;;5116226;28;19984;-64
2023/07/15 03:06:57;;;;;;;;;;;22.90;94.80;;;;;;5116543;28;19984;-64
2023/07/15 03:09:23;;;;;;;;;;;22.80;94.90;;;;;;5116365;28;20009;-64
2023/07/15 03:11:48;;;;;;;;;;;22.90;95.10;;;;;;5116428;28;19992;-63
2023/07/15 03:14:14;;;;;;;;;;;22.80;95.20;;;;;;5116223;28;20408;-65
2023/07/15 03:16:39;;;;;;;;;;;22.80;95.40;;;;;;5116528;28;20385;-65
2023/07/15 03:19:05;;;;;;;;;;;22.80;95.20;;;;;;5116294;28;19985;-64
2023/07/15 03:21:30;;;;;;;;;;;22.80;95.40;;;;;;5115850;28;20075;-62
2023/07/15 03:23:56;;;;;;;;;;;22.80;95.00;;;;;;5116247;28;19985;-64
2023/07/15 03:26:21;;;;;;;;;;;22.80;95.20;;;;;;5116342;28;20398;-64
2023/07/15 03:28:47;;;;;;;;;;;22.70;95.50;;;;;;5115817;28;20389;-64
2023/07/15 03:31:12;;;;;;;;;;;22.60;96.00;;;;;;5116228;28;20460;-63
2023/07/15 03:33:38;;;;;;;;;;;22.50;96.40;;;;;;5115927;28;19992;-64
2023/07/15 03:36:04;;;;;;;;;;;22.50;96.50;;;;;;5115670;28;20332;-63
2023/07/15 03:38:29;;;;;;;;;;;22.50;96.40;;;;;;5115790;28;20011;-64
2023/07/15 03:40:55;;;;;;;;;;;22.50;96.30;;;;;;5115839;28;20020;-64
2023/07/15 03:43:20;;;;;;;;;;;22.50;96.30;;;;;;5115702;28;20367;-63
2023/07/15 03:45:46;;;;;;;;;;;22.50;96.40;;;;;;5115568;28;19984;-63
2023/07/15 03:48:12;;;;;;;;;;;22.60;96.40;;;;;;5115239;28;20024;-64
2023/07/15 03:50:37;;;;;;;;;;;22.60;96.50;;;;;;5115434;28;19989;-65
2023/07/15 03:53:05;;;;;;;;;;;22.60;96.30;;;;;;5114973;28;20289;-63
2023/07/15 03:55:30;;;;;;;;;;;22.70;96.40;;;;;;5115481;28;20427;-63
2023/07/15 03:57:56;;;;;;;;;;;22.70;96.50;;;;;;5115329;28;20518;-63
2023/07/15 04:00:22;;;;;;;;;;;22.80;96.60;;;;;;5114925;28;20462;-63
2023/07/15 04:02:53;;;;;;;;;;;22.70;96.60;;;;;;5115310;28;20347;-65
2023/07/15 04:05:18;;;;;;;;;;;22.80;96.50;;;;;;5115074;28;19988;-65
2023/07/15 04:07:44;;;;;;;;;;;22.80;96.50;;;;;;5115143;28;20013;-65
2023/07/15 04:10:10;;;;;;;;;;;22.90;96.40;;;;;;5115328;28;19991;-63
2023/07/15 04:12:35;;;;;;;;;;;22.90;96.10;;;;;;5115061;28;19989;-64
2023/07/15 04:15:01;;;;;;;;;;;23.00;96.10;;;;;;5115013;28;19989;-64
2023/07/15 04:17:26;;;;;;;;;;;23.00;96.10;;;;;;5115033;28;19985;-65
2023/07/15 04:19:52;;;;;;;;;;;22.90;96.20;;;;;;5115091;28;20071;-62
2023/07/15 04:22:17;;;;;;;;;;;22.80;96.80;;;;;;5115029;28;19996;-64
2023/07/15 04:24:43;;;;;;;;;;;22.70;96.70;;;;;;5114842;28;19984;-64
2023/07/15 04:27:08;;;;;;;;;;;22.80;96.60;;;;;;5114672;28;19989;-64
2023/07/15 04:29:34;;;;;;;;;;;22.90;96.50;;;;;;5114936;28;19992;-62
2023/07/15 04:32:00;;;;;;;;;;;23.00;96.40;;;;;;5114464;28;19989;-62
2023/07/15 04:34:25;;;;;;;;;;;23.00;95.80;;;;;;5114805;28;19984;-64
2023/07/15 04:36:51;;;;;;;;;;;23.00;95.80;;;;;;5114713;28;20039;-63
2023/07/15 04:39:16;;;;;;;;;;;23.10;95.70;;;;;;5114594;28;20075;-64
2023/07/15 04:41:42;;;;;;;;;;;23.10;95.40;;;;;;5114715;28;19985;-64
2023/07/15 04:44:07;;;;;;;;;;;23.20;95.50;;;;;;5114707;28;19989;-63
2023/07/15 04:46:33;;;;;;;;;;;23.20;95.40;;;;;;5114271;28;19996;-62
2023/07/15 04:48:58;;;;;;;;;;;23.20;95.80;;;;;;5114292;28;20410;-64
2023/07/15 04:51:24;;;;;;;;;;;23.20;95.60;;;;;;5114439;28;19995;-65
2023/07/15 04:53:49;;;;;;;;;;;23.30;95.50;;;;;;5114392;28;19984;-62
2023/07/15 04:56:15;;;;;;;;;;;23.40;95.50;;;;;;5114318;28;19992;-65
2023/07/15 04:58:41;;;;;;;;;;;23.40;95.70;;;;;;5114328;28;20367;-65
2023/07/15 05:01:06;;;;;;;;;;;23.50;95.70;;;;;;5114134;28;20446;-64
2023/07/15 05:03:32;;;;;;;;;;;23.50;95.60;;;;;;5114260;28;19992;-63
2023/07/15 05:05:58;;;;;;;;;;;23.60;95.40;;;;;;5114243;28;19989;-64
2023/07/15 05:08:23;;;;;;;;;;;23.70;95.30;;;;;;5114164;28;20019;-63
2023/07/15 05:10:49;;;;;;;;;;;23.70;95.60;;;;;;5113826;28;19984;-64
2023/07/15 05:13:15;;;;;;;;;;;23.80;95.90;;;;;;5113977;28;19988;-64
2023/07/15 05:15:41;;;;;;;;;;;23.70;96.00;;;;;;5113943;28;20080;-64
2023/07/15 05:18:07;;;;;;;;;;;23.60;96.40;;;;;;5114068;28;20012;-63
2023/07/15 05:20:33;;;;;;;;;;;23.70;96.80;;;;;;5114206;28;19993;-64
2023/07/15 05:22:59;;;;;;;;;;;23.70;96.40;;;;;;5114007;28;20042;-64
2023/07/15 05:25:25;;;;;;;;;;;23.80;96.30;;;;;;5114057;28;19992;-64
2023/07/15 05:27:51;;;;;;;;;;;23.90;96.30;;;;;;5113895;28;20063;-63
2023/07/15 05:30:17;;;;;;;;;;;24.00;96.40;;;;;;5113846;28;20031;-63
2023/07/15 05:32:42;;;;;;;;;;;24.00;96.50;;;;;;5114069;28;19985;-64
2023/07/15 05:35:08;;;;;;;;;;;24.00;96.50;;;;;;5114139;28;20034;-65
2023/07/15 05:37:33;;;;;;;;;;;24.10;96.40;;;;;;5114073;28;20008;-64
2023/07/15 05:39:59;;;;;;;;;;;24.20;96.50;;;;;;5114008;28;20077;-63
2023/07/15 05:42:24;;;;;;;;;;;24.30;96.10;;;;;;5113852;28;19991;-64
2023/07/15 05:44:50;;;;;;;;;;;24.40;95.90;;;;;;5113687;28;20449;-63
2023/07/15 05:47:16;;;;;;;;;;;24.40;95.90;;;;;;5113634;28;19985;-65
2023/07/15 05:49:41;;;;;;;;;;;24.50;95.80;;;;;;5114067;28;20046;-62
2023/07/15 05:52:07;;;;;;;;;;;24.60;95.20;;;;;;5114117;28;19993;-63
2023/07/15 05:54:33;;;;;;;;;;;24.70;95.00;;;;;;5113914;28;20362;-62
2023/07/15 05:56:58;;;;;;;;;;;24.90;94.10;;;;;;5113756;28;20001;-64
2023/07/15 05:59:24;;;;;;;;;;;25.00;93.70;;;;;;5113486;28;20446;-63
2023/07/15 06:01:50;;;;;;;;;;;25.10;93.60;;;;;;5113798;28;20419;-65
2023/07/15 06:04:15;;;;;;;;;;;25.20;92.90;;;;;;5113982;28;19996;-62
2023/07/15 06:06:41;;;;;;;;;;;25.20;92.20;;;;;;5113581;28;19995;-64
2023/07/15 06:09:06;;;;;;;;;;;25.30;92.80;;;;;;5113780;28;20070;-63
2023/07/15 06:11:32;;;;;;;;;;;25.50;92.70;;;;;;5113765;28;19984;-65
2023/07/15 06:14:00;;;;;;;;;;;25.50;91.90;;;;;;5113602;28;20002;-63
2023/07/15 06:16:26;;;;;;;;;;;25.70;91.40;;;;;;5113879;28;19989;-63
2023/07/15 06:18:52;;;;;;;;;;;25.90;91.00;;;;;;5113548;28;20350;-64
2023/07/15 06:21:17;;;;;;;;;;;26.00;90.70;;;;;;5113716;28;19992;-64
2023/07/15 06:23:43;;;;;;;;;;;26.10;91.00;;;;;;5116410;28;19992;-65
2023/07/15 06:26:08;;;;;;;;;;;26.20;90.10;;;;;;5117230;28;20412;-63
2023/07/15 06:28:34;;;;;;;;;;;26.30;91.40;;;;;;5117044;28;20009;-63
2023/07/15 06:31:08;;;;;;;;;;;26.40;89.10;;;;;;5117038;28;20353;-64
2023/07/15 06:33:34;;;;;;;;;;;26.50;89.10;;;;;;5117234;28;20462;-62
2023/07/15 06:36:00;;;;;;;;;;;26.60;90.10;;;;;;5117064;28;20075;-63
2023/07/15 06:38:27;;;;;;;;;;;26.70;89.00;;;;;;5116992;28;20034;-65
2023/07/15 06:40:53;;;;;;;;;;;26.80;88.20;;;;;;5117224;28;19995;-63
2023/07/15 06:43:19;;;;;;;;;;;26.80;87.20;;;;;;5116721;28;20370;-63
2023/07/15 06:45:44;;;;;;;;;;;26.90;87.70;;;;;;5116840;28;19988;-64
2023/07/15 06:48:10;;;;;;;;;;;27.00;87.20;;;;;;5116609;28;20020;-62
2023/07/15 06:50:36;;;;;;;;;;;27.20;90.40;;;;;;5116849;28;19992;-64
2023/07/15 06:53:02;;;;;;;;;;;27.30;88.90;;;;;;5117225;28;20351;-65
2023/07/15 06:55:28;;;;;;;;;;;27.30;87.80;;;;;;5116633;28;20000;-64
2023/07/15 06:57:53;;;;;;;;;;;27.50;89.30;;;;;;5116490;28;20005;-64
2023/07/15 07:00:19;;;;;;;;;;;27.60;89.00;;;;;;5098227;28;19988;-64
2023/07/15 07:02:45;;;;;;;;;;;27.70;86.30;;;;;;5116658;28;19991;-64
2023/07/15 07:05:10;;;;;;;;;;;27.70;90.00;;;;;;5116742;28;20437;-64
2023/07/15 07:07:36;;;;;;;;;;;27.90;85.40;;;;;;5116319;28;20059;-63
2023/07/15 07:10:01;;;;;;;;;;;27.90;84.20;;;;;;5116551;28;20042;-63
2023/07/15 07:12:27;;;;;;;;;;;28.10;83.30;;;;;;5116261;28;19996;-63
2023/07/15 07:14:53;;;;;;;;;;;28.20;83.60;;;;;;5116339;28;20354;-63
2023/07/15 07:17:19;;;;;;;;;;;28.10;84.80;;;;;;5116171;28;19984;-62
2023/07/15 07:19:46;;;;;;;;;;;28.20;84.10;;;;;;5116487;28;19996;-63
2023/07/15 07:22:11;;;;;;;;;;;28.30;86.80;;;;;;5116425;28;19993;-65
2023/07/15 07:24:37;;;;;;;;;;;28.50;87.10;;;;;;5116059;28;20033;-63
2023/07/15 07:27:02;;;;;;;;;;;28.70;82.30;;;;;;5115821;28;19984;-64
2023/07/15 07:29:28;;;;;;;;;;;28.80;84.20;;;;;;5116019;28;20008;-64
2023/07/15 07:31:53;;;;;;;;;;;28.90;84.40;;;;;;5115939;28;19991;-64
2023/07/15 07:34:19;;;;;;;;;;;29.00;86.30;;;;;;5115303;28;19985;-63
2023/07/15 07:36:45;;;;;;;;;;;29.30;86.10;;;;;;5115882;28;19984;-64
2023/07/15 07:39:10;;;;;;;;;;;29.90;80.50;;;;;;5115752;28;20007;-62
2023/07/15 07:41:36;;;;;;;;;;;32.00;73.70;;;;;;5115558;28;20037;-64
2023/07/15 07:44:02;;;;;;;;;;;34.40;67.00;;;;;;5115907;28;19984;-63
2023/07/15 07:46:27;;;;;;;;;;;36.10;60.40;;;;;;5115587;28;19993;-64
2023/07/15 07:48:53;;;;;;;;;;;37.50;57.20;;;;;;5115309;28;20027;-62
2023/07/15 07:51:18;;;;;;;;;;;38.60;53.50;;;;;;5115725;28;20073;-63
2023/07/15 07:53:44;;;;;;;;;;;39.30;51.40;;;;;;5115587;28;20033;-64
2023/07/15 07:56:11;;;;;;;;;;;39.80;50.50;;;;;;5115273;28;20382;-65
2023/07/15 07:58:40;;;;;;;;;;;40.10;51.00;;;;;;5115422;28;20009;-64
2023/07/15 08:01:05;;;;;;;;;;;40.30;50.10;;;;;;5115439;28;19985;-63
2023/07/15 08:03:31;;;;;;;;;;;40.80;48.20;;;;;;5115542;28;19995;-64
2023/07/15 08:05:57;;;;;;;;;;;41.20;47.40;;;;;;5115400;28;19984;-62
2023/07/15 08:08:23;;;;;;;;;;;41.40;48.40;;;;;;5115268;28;20473;-64
2023/07/15 08:10:48;;;;;;;;;;;41.70;47.50;;;;;;5114944;28;19988;-64
2023/07/15 08:13:14;;;;;;;;;;;41.80;46.20;;;;;;5115255;28;19985;-64
2023/07/15 08:15:39;;;;;;;;;;;42.00;45.80;;;;;;5115334;28;19995;-63
2023/07/15 08:18:06;;;;;;;;;;;42.00;46.60;;;;;;5115050;28;20439;-62
2023/07/15 08:20:31;;;;;;;;;;;42.20;44.50;;;;;;5115253;28;19999;-65
2023/07/15 08:22:57;;;;;;;;;;;42.00;44.70;;;;;;5114930;28;20502;-64
2023/07/15 08:25:23;;;;;;;;;;;42.10;45.30;;;;;;5114791;28;19985;-63
2023/07/15 08:27:49;;;;;;;;;;;42.40;45.20;;;;;;5114675;28;20015;-62
2023/07/15 08:30:14;;;;;;;;;;;42.40;45.20;;;;;;5114938;28;20042;-64
2023/07/15 08:32:40;;;;;;;;;;;42.20;44.90;;;;;;5114834;28;20037;-63
2023/07/15 08:35:05;;;;;;;;;;;41.40;44.70;;;;;;5114939;28;20425;-64
2023/07/15 08:37:32;;;;;;;;;;;40.90;47.70;;;;;;5114664;28;19985;-63
2023/07/15 08:39:57;;;;;;;;;;;41.40;45.10;;;;;;5114535;28;19997;-63
2023/07/15 08:42:24;;;;;;;;;;;41.70;45.50;;;;;;5114575;28;20496;-64
2023/07/15 08:44:50;;;;;;;;;;;42.20;44.60;;;;;;5114920;28;19985;-64
2023/07/15 08:47:18;;;;;;;;;;;42.60;44.50;;;;;;5114262;28;20016;-64
2023/07/15 08:49:43;;;;;;;;;;;42.60;43.90;;;;;;5114531;28;19985;-63
2023/07/15 08:52:09;;;;;;;;;;;42.60;44.60;;;;;;5114295;28;20041;-62
2023/07/15 08:54:35;;;;;;;;;;;42.50;45.10;;;;;;5114289;28;19984;-64
2023/07/15 08:57:01;;;;;;;;;;;42.30;45.40;;;;;;5114364;28;20007;-62
2023/07/15 08:59:27;;;;;;;;;;;42.30;46.20;;;;;;5114340;28;19988;-63
2023/07/15 09:01:52;;;;;;;;;;;42.00;45.30;;;;;;5114441;28;19984;-64
2023/07/15 09:04:18;;;;;;;;;;;41.90;46.10;;;;;;5114200;28;19989;-65
2023/07/15 09:06:44;;;;;;;;;;;41.90;46.30;;;;;;5114208;28;19988;-64
2023/07/15 09:09:09;;;;;;;;;;;42.10;47.10;;;;;;5114260;28;20012;-64
2023/07/15 09:11:42;;;;;;;;;;;42.30;45.40;;;;;;5114254;28;20432;-64
2023/07/15 09:14:17;;;;;;;;;;;42.60;45.40;;;;;;5114049;28;20086;-64
2023/07/15 09:16:42;;;;;;;;;;;42.70;44.70;;;;;;5114098;28;19988;-65
2023/07/15 09:19:08;;;;;;;;;;;42.90;44.00;;;;;;5113947;28;19988;-63
2023/07/15 09:21:33;;;;;;;;;;;43.00;44.80;;;;;;5114110;28;19995;-65
2023/07/15 09:24:00;;;;;;;;;;;43.10;44.70;;;;;;5113880;28;20075;-64
2023/07/15 09:26:25;;;;;;;;;;;42.80;44.00;;;;;;5114049;28;20020;-65
2023/07/15 09:28:51;;;;;;;;;;;42.20;43.60;;;;;;5113866;28;20048;-62
2023/07/15 09:31:23;;;;;;;;;;;41.70;44.50;;;;;;5114188;28;19985;-62
2023/07/15 09:33:49;;;;;;;;;;;41.80;45.50;;;;;;5114340;28;19985;-64
2023/07/15 09:36:15;;;;;;;;;;;41.70;43.60;;;;;;5113910;28;20400;-62
2023/07/15 09:38:40;;;;;;;;;;;41.40;45.00;;;;;;5113843;28;20403;-63
2023/07/15 09:41:08;;;;;;;;;;;41.20;43.00;;;;;;5113964;28;19985;-64
2023/07/15 09:43:44;;;;;;;;;;;41.40;44.70;;;;;;5113786;28;19995;-63
2023/07/15 09:46:11;;;;;;;;;;;41.70;43.00;;;;;;5113985;28;20038;-65
2023/07/15 09:48:36;;;;;;;;;;;41.70;44.20;;;;;;5113843;28;20068;-64
2023/07/15 09:51:02;;;;;;;;;;;41.90;42.70;;;;;;5114118;28;20503;-64
2023/07/15 09:53:28;;;;;;;;;;;41.60;43.60;;;;;;5113653;28;20416;-62
2023/07/15 09:55:53;;;;;;;;;;;41.60;46.30;;;;;;5114106;28;19995;-64
2023/07/15 09:58:23;;;;;;;;;;;41.70;45.10;;;;;;5115357;28;20113;-62
2023/07/15 10:00:52;;;;;;;;;;;41.90;46.20;;;;;;5118032;28;20082;-64
2023/07/15 10:03:23;;;;;;;;;;;42.00;44.70;;;;;;5117749;28;20102;-64
2023/07/15 10:05:49;;;;;;;;;;;42.00;45.40;;;;;;5117739;28;20355;-64
2023/07/15 10:08:14;;;;;;;;;;;41.60;44.10;;;;;;5117807;28;20019;-63
2023/07/15 10:10:40;;;;;;;;;;;41.30;45.60;;;;;;5117574;28;20080;-61
2023/07/15 10:13:07;;;;;;;;;;;41.10;43.70;;;;;;5117441;28;19993;-63
2023/07/15 10:15:32;;;;;;;;;;;41.30;44.30;;;;;;5117471;28;20041;-64
2023/07/15 10:18:09;;;;;;;;;;;41.50;45.30;;;;;;5117381;28;19988;-64
2023/07/15 10:20:35;;;;;;;;;;;41.80;47.00;;;;;;5117364;28;20041;-63
2023/07/15 10:23:01;;;;;;;;;;;42.00;44.60;;;;;;5117438;28;20071;-63
2023/07/15 10:25:27;;;;;;;;;;;42.20;45.10;;;;;;5117330;28;20455;-64
2023/07/15 10:28:08;;;;;;;;;;;42.30;43.20;;;;;;5117188;28;20062;-64
2023/07/15 10:30:34;;;;;;;;;;;42.10;46.20;;;;;;5117504;28;19989;-63
2023/07/15 10:33:05;;;;;;;;;;;42.40;46.10;;;;;;5117063;28;19985;-63
2023/07/15 10:35:45;;;;;;;;;;;42.60;44.60;;;;;;5116955;28;19984;-62
2023/07/15 10:38:20;;;;;;;;;;;42.80;44.00;;;;;;5116967;28;19989;-64
2023/07/15 10:40:49;;;;;;;;;;;42.90;43.80;;;;;;5117177;28;19989;-64
2023/07/15 10:43:22;;;;;;;;;;;43.00;43.40;;;;;;5116917;28;19989;-64
2023/07/15 10:45:55;;;;;;;;;;;42.80;44.20;;;;;;5116829;28;20050;-64
2023/07/15 10:48:21;;;;;;;;;;;42.70;43.80;;;;;;5116890;28;20024;-63
2023/07/15 10:50:48;;;;;;;;;;;42.00;43.70;;;;;;5116492;28;19984;-63
2023/07/15 10:53:23;;;;;;;;;;;41.70;44.70;;;;;;5117106;28;20042;-63
2023/07/15 10:56:02;;;;;;;;;;;41.90;46.40;;;;;;5116710;28;19984;-63
2023/07/15 10:58:32;;;;;;;;;;;41.40;44.30;;;;;;5116876;28;20012;-63
2023/07/15 11:01:01;;;;;;;;;;;40.80;48.30;;;;;;5116583;28;19999;-65
2023/07/15 11:03:27;;;;;;;;;;;40.30;45.70;;;;;;5116376;28;19985;-65
2023/07/15 11:06:01;;;;;;;;;;;40.00;46.90;;;;;;5116469;28;19992;-65
2023/07/15 11:08:27;;;;;;;;;;;40.40;47.30;;;;;;5116440;28;20008;-62
2023/07/15 11:10:56;;;;;;;;;;;40.90;47.20;;;;;;5115248;28;19992;-65
2023/07/15 11:13:22;;;;;;;;;;;40.90;45.90;;;;;;5116600;28;20362;-63
2023/07/15 11:15:48;;;;;;;;;;;40.40;48.10;;;;;;5116766;28;20091;-62
2023/07/15 11:18:14;;;;;;;;;;;40.20;49.70;;;;;;5116009;28;20451;-62
2023/07/15 11:20:40;;;;;;;;;;;40.70;48.50;;;;;;5116363;28;20027;-63
2023/07/15 11:23:05;;;;;;;;;;;41.10;47.60;;;;;;5116326;28;20404;-64
2023/07/15 11:25:32;;;;;;;;;;;40.70;46.70;;;;;;5116029;28;19988;-62
2023/07/15 11:28:00;;;;;;;;;;;40.70;46.30;;;;;;5116027;28;20058;-63
2023/07/15 11:30:33;;;;;;;;;;;40.90;47.50;;;;;;5116091;28;19985;-64
2023/07/15 11:32:58;;;;;;;;;;;40.40;46.00;;;;;;5115643;28;20520;-65
2023/07/15 11:35:24;;;;;;;;;;;40.20;48.80;;;;;;5116189;28;20018;-63
2023/07/15 11:37:49;;;;;;;;;;;40.40;46.60;;;;;;5116060;28;19985;-64
2023/07/15 11:40:17;;;;;;;;;;;40.20;45.50;;;;;;5115976;28;19988;-63
2023/07/15 11:42:43;;;;;;;;;;;40.20;48.30;;;;;;5115797;28;19988;-64
2023/07/15 11:45:09;;;;;;;;;;;40.60;44.20;;;;;;5115791;28;19984;-64
2023/07/15 11:47:35;;;;;;;;;;;40.90;43.90;;;;;;5115121;28;20111;-62
2023/07/15 11:50:01;;;;;;;;;;;41.10;48.20;;;;;;5115667;28;19995;-62
2023/07/15 11:52:27;;;;;;;;;;;41.40;47.20;;;;;;5115721;28;19985;-63
2023/07/15 11:54:53;;;;;;;;;;;41.60;43.50;;;;;;5116254;28;20415;-64
2023/07/15 11:57:28;;;;;;;;;;;41.50;41.90;;;;;;5115656;28;20055;-64
2023/07/15 11:59:53;;;;;;;;;;;41.50;42.80;;;;;;5115452;28;19984;-62
2023/07/15 12:02:19;;;;;;;;;;;41.80;46.50;;;;;;5115154;28;19991;-63
2023/07/15 12:04:45;;;;;;;;;;;41.90;46.00;;;;;;5115307;28;20041;-65
2023/07/15 12:07:11;;;;;;;;;;;42.20;46.20;;;;;;5115618;28;19988;-65
2023/07/15 12:09:36;;;;;;;;;;;41.90;45.80;;;;;;5115225;28;20013;-64
2023/07/15 12:12:02;;;;;;;;;;;41.60;45.10;;;;;;5115190;28;19996;-62
2023/07/15 12:14:31;;;;;;;;;;;40.90;45.70;;;;;;5115125;28;19988;-63
2023/07/15 12:16:59;;;;;;;;;;;40.40;45.80;;;;;;5114946;28;20007;-62
2023/07/15 12:19:25;;;;;;;;;;;39.90;46.20;;;;;;5115078;28;19985;-62
2023/07/15 12:21:51;;;;;;;;;;;39.40;46.40;;;;;;5114873;28;19988;-62
2023/07/15 12:24:17;;;;;;;;;;;38.90;47.10;;;;;;5114997;28;19992;-63
2023/07/15 12:26:43;;;;;;;;;;;39.10;49.70;;;;;;5114841;28;20492;-64
2023/07/15 12:29:09;;;;;;;;;;;39.20;48.00;;;;;;5114786;28;20012;-64
2023/07/15 12:31:34;;;;;;;;;;;39.30;48.50;;;;;;5096574;28;20035;-62
2023/07/15 12:34:00;;;;;;;;;;;39.50;47.30;;;;;;5114598;28;20071;-64
2023/07/15 12:36:25;;;;;;;;;;;39.50;51.30;;;;;;5114874;28;19988;-65
2023/07/15 12:38:51;;;;;;;;;;;39.40;47.90;;;;;;5114614;28;20024;-63
2023/07/15 12:41:16;;;;;;;;;;;39.60;49.70;;;;;;5114867;28;19999;-63
2023/07/15 12:43:42;;;;;;;;;;;39.70;48.50;;;;;;5114884;28;19997;-65
2023/07/15 12:46:08;;;;;;;;;;;39.70;47.20;;;;;;5114371;28;20029;-64
2023/07/15 12:48:33;;;;;;;;;;;39.60;46.80;;;;;;5114297;28;20063;-63
2023/07/15 12:50:59;;;;;;;;;;;39.40;47.30;;;;;;5114515;28;20068;-65
2023/07/15 12:53:25;;;;;;;;;;;39.50;47.40;;;;;;5114730;28;19989;-62
2023/07/15 12:55:52;;;;;;;;;;;39.60;48.10;;;;;;5114457;28;19996;-65
2023/07/15 12:58:17;;;;;;;;;;;39.40;47.20;;;;;;5114544;28;20011;-63
2023/07/15 13:00:43;;;;;;;;;;;39.60;47.20;;;;;;5114105;28;19989;-64
2023/07/15 13:03:09;;;;;;;;;;;39.90;48.20;;;;;;5114375;28;19985;-64
2023/07/15 13:05:35;;;;;;;;;;;39.90;48.10;;;;;;5114293;28;20351;-61
2023/07/15 13:08:01;;;;;;;;;;;39.60;46.50;;;;;;5114218;28;20008;-63
2023/07/15 13:10:28;;;;;;;;;;;39.20;47.90;;;;;;5114332;28;20410;-63
2023/07/15 13:12:54;;;;;;;;;;;39.10;47.20;;;;;;5114162;28;19991;-63
2023/07/15 13:15:20;;;;;;;;;;;39.10;47.30;;;;;;5113937;28;19989;-64
2023/07/15 13:17:45;;;;;;;;;;;39.20;47.70;;;;;;5114286;28;19989;-65
2023/07/15 13:20:12;;;;;;;;;;;39.10;48.30;;;;;;5114105;28;19988;-64
2023/07/15 13:22:38;;;;;;;;;;;38.90;47.70;;;;;;5114389;28;20061;-64
2023/07/15 13:25:05;;;;;;;;;;;38.90;47.20;;;;;;5114034;28;20446;-62
2023/07/15 13:27:34;;;;;;;;;;;38.90;46.60;;;;;;5114062;28;20037;-62
2023/07/15 13:30:00;;;;;;;;;;;38.90;48.80;;;;;;5113892;28;19988;-62
2023/07/15 13:32:26;;;;;;;;;;;38.70;50.40;;;;;;5114405;28;20079;-64
2023/07/15 13:34:51;;;;;;;;;;;38.50;49.50;;;;;;5118282;28;19992;-62
2023/07/15 13:37:17;;;;;;;;;;;38.00;48.90;;;;;;5118427;28;20165;-64
2023/07/15 13:39:45;;;;;;;;;;;37.80;47.20;;;;;;5118449;28;20012;-62
2023/07/15 13:42:13;;;;;;;;;;;37.50;49.40;;;;;;5118179;28;20397;-62
2023/07/15 13:44:39;;;;;;;;;;;37.40;50.70;;;;;;5117849;28;20101;-64
2023/07/15 13:47:05;;;;;;;;;;;37.30;49.30;;;;;;5118101;28;20074;-64
2023/07/15 13:49:31;;;;;;;;;;;37.40;51.70;;;;;;5117685;28;20072;-63
2023/07/15 13:51:57;;;;;;;;;;;37.50;49.20;;;;;;5118187;28;19989;-64
2023/07/15 13:54:23;;;;;;;;;;;37.90;50.10;;;;;;5117929;28;20043;-64
2023/07/15 13:56:49;;;;;;;;;;;38.30;48.50;;;;;;5118016;28;20008;-63
2023/07/15 13:59:15;;;;;;;;;;;38.60;48.30;;;;;;5117593;28;19985;-64
2023/07/15 14:01:41;;;;;;;;;;;38.80;48.30;;;;;;5117748;28;19996;-62
2023/07/15 14:04:08;;;;;;;;;;;39.10;47.60;;;;;;5117706;28;19985;-64
2023/07/15 14:06:33;;;;;;;;;;;39.30;46.20;;;;;;5117557;28;19989;-65
2023/07/15 14:08:59;;;;;;;;;;;39.50;46.90;;;;;;5117761;28;20016;-63
2023/07/15 14:11:25;;;;;;;;;;;39.70;47.80;;;;;;5117838;28;19989;-63